Albuquerque, NM (87120)

7:37 PM MDT on May 29, 2015 (GMT -0600)
Taylor Ranch (Montano/Cochiti) | | Change Station
CLOSE
Current Station
Personal Weather Station
Location: Albuquerque, NM
Elevation: 5135 ft
Nearby Weather Stations

Elev 5135 ft 35.15 °N, 106.71 °W | Updated 44 seconds ago

Mostly Cloudy
Mostly Cloudy
79.3 °F
Feels Like 78 °F
N
3.8
Wind Variable Wind from ESE
Gusts 6.3 mph

Today
High -- | Low -- °F
--% Chance of Precip.
Yesterday
High -- | Low -- °F
Precip. -- in
5:54 AM 8:13 PM
Waxing Gibbous, 87% visible
Pressure 29.90 in
Visibility 10.0 miles
Clouds Scattered Clouds 15000 ft
Mostly Cloudy 22000 ft
Heat Index 78 °F
Dew Point 33 °F
Humidity 19%
Rainfall 0.00 in
Snow Depth Not available.
UV 1 out of 12
Pollen 5.10 out of 12
Air Quality Not available.
Flu Activity Sporadic
METAR KABQ 300052Z 31016G23KT 10SM SCT150 BKN220 25/M01 A3011 RMK AO2 PK WND 31028/0027 SLP123 T02501006

More Conditions Fewer Conditions

Pressure 29.90 in
Visibility 10.0 miles
Clouds Scattered Clouds 15000 ft
Mostly Cloudy 22000 ft
Heat Index 78 °F
Dew Point 33 °F
Humidity 19%
Rainfall 0.00 in
Snow Depth Not available.
UV 1 out of 12
Pollen 5.10 out of 12
Air Quality Not available.
Flu Activity Sporadic
METAR KABQ 300052Z 31016G23KT 10SM SCT150 BKN220 25/M01 A3011 RMK AO2 PK WND 31028/0027 SLP123 T02501006

More Conditions Fewer Conditions

10-Day Weather Forecast

Almanac

Astronomy

May. 29, 2015 Rise Set
Actual Time
Civil Twilight
Nautical Twilight
Astronomical Twilight
Moon
Length of Visible Light
Length of Day
Tomorrow will be .
, % of the Moon is Illuminated

Today's Extremes

State Highs State Lows

Community

WunderPhotos

Upload Photos

1,825,415 photos uploaded!

WunderBlogs® & News

Nearby

Air Quality

  Air Quality AQ Index Pollutant
Not available.

Snow Depth

Station Depth Elevation

Earthquake Activity

City Distance Mag. Time & Date
Minimum magnitude displayed is 2.5.

Coastal Water Temperatures

Place Temperature

Stations

Nearby Weather Stations

Station Location Temp. Windchill Dew Point Humidity Wind Precip. Elev Updated Type